Time;durP1;ratioP1;P1;durP2;ratioP2;P2;SDS_P1;SDS_P2;PMS_P1;PMS_P2;Temp;Humidity;BMP_temperature;BMP_pressure;BME280_temperature;BME280_humidity;BME280_pressure;Samples;Min_cycle;Max_cycle;Signal;HPM_P1;HPM_P2
2020/12/05 00:00:00;;;;;;;;;;;;;;;20.13;41.21;101107.50;5100669;28;782;-60
2020/12/05 00:02:25;;;;;;;;;;;;;;;20.12;41.29;101108.63;5099970;28;823;-61
2020/12/05 00:04:51;;;;;;;;;;;;;;;19.20;43.26;101109.22;5100200;28;834;-60
2020/12/05 00:07:16;;;;;;;;;;;;;;;19.98;41.75;101099.38;5100398;28;1914;-60
2020/12/05 00:09:42;;;;;;;;;;;;;;;20.72;40.04;101101.97;5100060;28;1009;-61
2020/12/05 00:12:08;;;;;;;;;;;;;;;20.14;41.09;101095.34;5099957;28;803;-61
2020/12/05 00:14:33;;;;;;;;;;;;;;;19.93;41.80;101102.16;5100144;28;802;-61
2020/12/05 00:16:59;;;;;;;;;;;;;;;19.33;43.22;101097.56;5098125;28;874;-60
2020/12/05 00:19:24;;;;;;;;;;;;;;;19.89;41.84;101101.91;5099734;28;1222;-61
2020/12/05 00:21:50;;;;;;;;;;;;;;;20.79;39.89;101105.22;5100021;28;771;-61
2020/12/05 00:24:15;;;;;;;;;;;;;;;20.11;41.40;101104.19;5099903;28;807;-61
2020/12/05 00:26:41;;;;;;;;;;;;;;;19.96;41.79;101105.16;5099430;28;1918;-61
2020/12/05 00:29:06;;;;;;;;;;;;;;;19.28;43.29;101111.38;5098511;28;806;-61
2020/12/05 00:31:32;;;;;;;;;;;;;;;19.84;42.28;101104.72;5098676;28;660;-61
2020/12/05 00:33:57;;;;;;;;;;;;;;;20.83;39.77;101111.78;5099730;28;815;-61
2020/12/05 00:36:23;;;;;;;;;;;;;;;20.32;41.02;101112.31;5099788;28;819;-61
2020/12/05 00:38:48;;;;;;;;;;;;;;;20.08;41.39;101110.31;5099276;28;803;-59
2020/12/05 00:41:17;;;;;;;;;;;;;;;19.28;42.98;101112.19;5099403;28;961;-60
2020/12/05 00:43:42;;;;;;;;;;;;;;;20.26;41.36;101107.91;5099689;28;802;-59
2020/12/05 00:46:08;;;;;;;;;;;;;;;20.52;40.57;101117.63;5099123;28;1971;-59
2020/12/05 00:48:33;;;;;;;;;;;;;;;20.06;41.62;101123.56;5098532;28;1157;-60
2020/12/05 00:50:59;;;;;;;;;;;;;;;19.71;42.20;101108.88;5099329;28;819;-60
2020/12/05 00:53:25;;;;;;;;;;;;;;;19.35;43.14;101109.13;5097555;28;1223;-60
2020/12/05 00:55:51;;;;;;;;;;;;;;;20.42;40.78;101101.13;5098083;28;1275;-60
2020/12/05 00:58:16;;;;;;;;;;;;;;;20.60;40.25;101113.38;5099329;28;752;-60
2020/12/05 01:00:42;;;;;;;;;;;;;;;20.08;41.28;101109.50;5098822;28;740;-62
2020/12/05 01:03:07;;;;;;;;;;;;;;;19.81;41.87;101103.34;5099673;28;822;-62
2020/12/05 01:05:33;;;;;;;;;;;;;;;19.46;42.89;101099.69;5099314;28;763;-62
2020/12/05 01:07:59;;;;;;;;;;;;;;;20.52;40.57;101101.06;5097524;28;1976;-62
2020/12/05 01:10:25;;;;;;;;;;;;;;;20.22;41.21;101106.88;5098795;28;1016;-62
2020/12/05 01:12:50;;;;;;;;;;;;;;;19.97;41.64;101106.00;5098982;28;794;-62
2020/12/05 01:15:16;;;;;;;;;;;;;;;19.70;42.22;101101.75;5098717;28;850;-62
2020/12/05 01:17:41;;;;;;;;;;;;;;;19.89;42.11;101110.16;5098822;28;1011;-62
2020/12/05 01:20:06;;;;;;;;;;;;;;;20.80;40.04;101100.50;5098785;28;804;-62
2020/12/05 01:22:32;;;;;;;;;;;;;;;20.39;40.98;101101.72;5098723;28;759;-61
2020/12/05 01:24:58;;;;;;;;;;;;;;;20.15;41.40;101102.50;5098787;28;960;-60
2020/12/05 01:27:23;;;;;;;;;;;;;;;19.29;43.29;101108.34;5098486;28;1981;-61
2020/12/05 01:29:48;;;;;;;;;;;;;;;20.23;41.20;101103.00;5097258;28;970;-60
2020/12/05 01:32:14;;;;;;;;;;;;;;;20.89;39.48;101115.31;5097436;28;875;-60
2020/12/05 01:34:39;;;;;;;;;;;;;;;20.08;41.45;101107.53;5098727;28;792;-60
2020/12/05 01:37:05;;;;;;;;;;;;;;;19.88;41.82;101107.69;5098179;28;727;-59
2020/12/05 01:39:30;;;;;;;;;;;;;;;19.17;43.59;101115.28;5098521;28;791;-60
2020/12/05 01:41:56;;;;;;;;;;;;;;;20.10;41.57;101110.81;5098253;28;957;-62
2020/12/05 01:44:21;;;;;;;;;;;;;;;20.48;40.42;101111.03;5098066;28;807;-61
2020/12/05 01:46:47;;;;;;;;;;;;;;;19.99;41.69;101115.63;5098294;28;1972;-59
2020/12/05 01:49:15;;;;;;;;;;;;;;;19.91;41.81;101115.41;5096834;28;874;-59
2020/12/05 01:51:40;;;;;;;;;;;;;;;19.05;43.81;101119.19;5098005;28;833;-60
2020/12/05 01:54:07;;;;;;;;;;;;;;;20.12;41.59;101118.84;5098197;28;818;-59
2020/12/05 01:56:32;;;;;;;;;;;;;;;20.68;40.32;101120.25;5096617;28;1001;-60
2020/12/05 01:58:58;;;;;;;;;;;;;;;20.07;41.76;101116.94;5097858;28;801;-59
2020/12/05 02:01:24;;;;;;;;;;;;;;;19.82;42.13;101110.53;5098045;28;775;-60
2020/12/05 02:03:50;;;;;;;;;;;;;;;19.11;44.00;101114.47;5097876;28;771;-60
2020/12/05 02:06:23;;;;;;;;;;;;;;;20.30;41.08;101097.94;5096920;28;1976;-61
2020/12/05 02:09:07;;;;;;;;;;;;;;;20.48;40.59;101105.53;5096894;28;1193;-60
2020/12/05 02:11:35;;;;;;;;;;;;;;;20.08;41.49;101104.78;5097484;28;993;-60
2020/12/05 02:14:01;;;;;;;;;;;;;;;19.66;42.63;101117.22;5097632;28;755;-59
2020/12/05 02:16:26;;;;;;;;;;;;;;;19.86;42.30;101112.69;5096213;28;878;-59
2020/12/05 02:18:52;;;;;;;;;;;;;;;20.95;40.16;101107.78;5097517;28;988;-60
2020/12/05 02:21:17;;;;;;;;;;;;;;;20.59;41.06;101108.16;5096294;28;772;-58
2020/12/05 02:23:46;;;;;;;;;;;;;;;20.35;41.48;101101.47;5096562;28;776;-62
2020/12/05 02:26:11;;;;;;;;;;;;;;;19.53;43.16;101107.66;5097356;28;1918;-60
2020/12/05 02:28:37;;;;;;;;;;;;;;;20.00;42.45;101103.44;5079164;28;795;-61
2020/12/05 02:31:02;;;;;;;;;;;;;;;20.71;40.94;101107.81;5095996;28;779;-62
2020/12/05 02:33:28;;;;;;;;;;;;;;;20.35;41.67;101106.19;5097490;28;878;-60
2020/12/05 02:35:53;;;;;;;;;;;;;;;20.36;41.29;101107.84;5097137;28;847;-61
2020/12/05 02:38:21;;;;;;;;;;;;;;;19.28;43.51;101111.38;5097604;28;751;-64
2020/12/05 02:40:47;;;;;;;;;;;;;;;20.09;42.13;101114.72;5096882;28;823;-61
2020/12/05 02:43:12;;;;;;;;;;;;;;;20.85;40.38;101108.72;5095255;28;792;-61
2020/12/05 02:45:41;;;;;;;;;;;;;;;20.22;41.53;101106.88;5097166;28;871;-61
2020/12/05 02:48:07;;;;;;;;;;;;;;;20.04;41.86;101109.22;5097164;28;1909;-61
2020/12/05 02:50:32;;;;;;;;;;;;;;;19.33;43.54;101111.34;5096964;28;838;-60
2020/12/05 02:52:58;;;;;;;;;;;;;;;20.38;41.26;101100.06;5096862;28;775;-61
2020/12/05 02:55:23;;;;;;;;;;;;;;;20.67;40.62;101102.00;5097037;28;933;-62
2020/12/05 02:57:49;;;;;;;;;;;;;;;20.54;41.15;101108.19;5096939;28;779;-61
2020/12/05 03:00:14;;;;;;;;;;;;;;;20.02;41.78;101100.44;5096783;28;810;-61
2020/12/05 03:02:40;;;;;;;;;;;;;;;19.46;43.42;101110.72;5097072;28;763;-62
2020/12/05 03:05:05;;;;;;;;;;;;;;;20.55;40.87;101109.84;5096678;28;772;-60
2020/12/05 03:07:30;;;;;;;;;;;;;;;20.70;40.48;101112.47;5096644;28;1913;-62
2020/12/05 03:09:56;;;;;;;;;;;;;;;20.21;41.51;101110.75;5094850;28;933;-60
2020/12/05 03:12:21;;;;;;;;;;;;;;;19.68;42.57;101109.47;5096373;28;874;-61
2020/12/05 03:14:47;;;;;;;;;;;;;;;19.93;42.25;101116.75;5096659;28;787;-61
2020/12/05 03:17:12;;;;;;;;;;;;;;;20.95;40.27;101121.59;5096554;28;1170;-59
2020/12/05 03:19:38;;;;;;;;;;;;;;;20.39;41.61;101118.31;5096493;28;862;-61
2020/12/05 03:22:03;;;;;;;;;;;;;;;20.26;41.86;101118.97;5096559;28;830;-60
2020/12/05 03:24:29;;;;;;;;;;;;;;;19.35;43.67;101117.41;5097010;28;776;-58
2020/12/05 03:26:54;;;;;;;;;;;;;;;19.67;43.16;101124.41;5096225;28;1906;-61
2020/12/05 03:29:20;;;;;;;;;;;;;;;20.71;40.63;101129.91;5094817;28;864;-60
2020/12/05 03:31:52;;;;;;;;;;;;;;;20.41;41.48;101127.13;5095311;28;909;-67
2020/12/05 03:34:17;;;;;;;;;;;;;;;20.17;41.69;101127.91;5096476;28;814;-61
2020/12/05 03:36:43;;;;;;;;;;;;;;;19.64;42.86;101138.75;5096457;28;759;-62
2020/12/05 03:39:08;;;;;;;;;;;;;;;20.18;41.88;101135.06;5094811;28;908;-64
2020/12/05 03:41:34;;;;;;;;;;;;;;;20.88;40.38;101134.97;5096470;28;941;-58
2020/12/05 03:43:59;;;;;;;;;;;;;;;20.34;41.37;101130.22;5096267;28;744;-59
2020/12/05 03:46:25;;;;;;;;;;;;;;;20.15;41.64;101135.63;5096422;28;1913;-59
2020/12/05 03:48:50;;;;;;;;;;;;;;;19.73;42.72;101137.03;5096736;28;775;-65
2020/12/05 03:51:16;;;;;;;;;;;;;;;20.62;41.13;101137.97;5094635;28;874;-63
2020/12/05 03:53:41;;;;;;;;;;;;;;;20.76;40.58;101138.97;5096291;28;751;-61
2020/12/05 03:56:06;;;;;;;;;;;;;;;20.39;41.24;101151.44;5096004;28;926;-62
2020/12/05 03:58:32;;;;;;;;;;;;;;;19.99;42.03;101145.16;5094927;28;918;-60
2020/12/05 04:00:57;;;;;;;;;;;;;;;19.21;44.16;101150.28;5096192;28;846;-63
2020/12/05 04:03:23;;;;;;;;;;;;;;;20.38;41.45;101160.03;5096289;28;823;-59
2020/12/05 04:05:48;;;;;;;;;;;;;;;20.59;40.85;101160.66;5096176;28;870;-59
2020/12/05 04:08:14;;;;;;;;;;;;;;;20.28;41.71;101149.91;5096003;28;1979;-60
2020/12/05 04:10:39;;;;;;;;;;;;;;;19.76;42.61;101155.78;5096275;28;1008;-63
2020/12/05 04:13:04;;;;;;;;;;;;;;;19.18;44.48;101158.28;5096305;28;779;-58
2020/12/05 04:15:30;;;;;;;;;;;;;;;20.42;41.48;101161.09;5096359;28;807;-58
2020/12/05 04:17:55;;;;;;;;;;;;;;;20.34;41.39;101162.53;5096136;28;1127;-60
2020/12/05 04:20:21;;;;;;;;;;;;;;;20.13;41.82;101151.69;5095964;28;843;-63
2020/12/05 04:22:46;;;;;;;;;;;;;;;19.77;42.52;101162.94;5094593;28;788;-62
2020/12/05 04:25:12;;;;;;;;;;;;;;;19.82;42.88;101164.88;5095842;28;1016;-59
2020/12/05 04:27:37;;;;;;;;;;;;;;;20.85;40.27;101152.97;5094237;28;2069;-61
2020/12/05 04:30:03;;;;;;;;;;;;;;;20.25;41.76;101158.75;5099502;28;912;-59
2020/12/05 04:32:28;;;;;;;;;;;;;;;20.27;41.67;101168.41;5099785;28;811;-60
2020/12/05 04:34:56;;;;;;;;;;;;;;;19.81;42.47;101168.72;5099491;28;843;-61
2020/12/05 04:37:22;;;;;;;;;;;;;;;19.92;42.57;101166.72;5098589;28;763;-61
2020/12/05 04:39:48;;;;;;;;;;;;;;;20.75;40.83;101166.88;5099495;28;1004;-63
2020/12/05 04:42:13;;;;;;;;;;;;;;;20.20;41.66;101172.59;5099217;28;827;-64
2020/12/05 04:44:39;;;;;;;;;;;;;;;20.12;42.18;101171.31;5098340;28;1318;-63
2020/12/05 04:47:04;;;;;;;;;;;;;;;19.32;43.42;101178.63;5081460;28;1913;-61
2020/12/05 04:49:29;;;;;;;;;;;;;;;19.82;42.91;101171.22;5098045;28;756;-60
2020/12/05 04:52:18;;;;;;;;;;;;;;;20.82;40.43;101176.47;5099498;28;783;-62
2020/12/05 04:54:44;;;;;;;;;;;;;;;20.32;41.26;101165.59;5070408;28;1263;-64
2020/12/05 04:57:10;;;;;;;;;;;;;;;20.08;41.74;101173.81;5100381;28;863;-61
2020/12/05 04:59:35;;;;;;;;;;;;;;;19.55;43.33;101176.31;5097919;28;823;-65
2020/12/05 05:02:00;;;;;;;;;;;;;;;20.48;41.34;101182.03;5098726;28;834;-64
2020/12/05 05:04:26;;;;;;;;;;;;;;;21.06;39.96;101186.72;5097794;28;878;-58
2020/12/05 05:06:52;;;;;;;;;;;;;;;21.44;38.99;101186.78;5098937;28;1913;-62
2020/12/05 05:09:17;;;;;;;;;;;;;;;20.65;40.72;101195.41;5097459;28;978;-63
2020/12/05 05:11:55;;;;;;;;;;;;;;;20.51;41.16;101192.50;5082682;28;998;-60
2020/12/05 05:14:30;;;;;;;;;;;;;;;19.72;42.48;101198.84;5099040;28;890;-64
2020/12/05 05:17:02;;;;;;;;;;;;;;;19.82;42.85;101196.06;5097559;28;842;-61
2020/12/05 05:19:27;;;;;;;;;;;;;;;20.91;40.54;101198.75;5098549;28;1039;-63
2020/12/05 05:21:53;;;;;;;;;;;;;;;20.52;41.13;101199.66;5098828;28;802;-63
2020/12/05 05:24:19;;;;;;;;;;;;;;;20.35;41.32;101205.63;5098940;28;808;-60
2020/12/05 05:26:45;;;;;;;;;;;;;;;19.73;42.63;101203.25;5097928;28;1922;-64
2020/12/05 05:29:28;;;;;;;;;;;;;;;20.00;42.31;101210.28;5097562;28;1407;-60
2020/12/05 05:31:59;;;;;;;;;;;;;;;20.93;40.36;101210.38;5098223;28;858;-65
2020/12/05 05:34:24;;;;;;;;;;;;;;;20.46;41.31;101209.13;5098499;28;807;-64
2020/12/05 05:36:49;;;;;;;;;;;;;;;20.23;41.64;101207.91;5098413;28;776;-64
2020/12/05 05:39:16;;;;;;;;;;;;;;;19.52;43.10;101207.22;5098163;28;847;-64
2020/12/05 05:41:45;;;;;;;;;;;;;;;19.52;43.61;101210.81;5097399;28;1024;-64
2020/12/05 05:44:12;;;;;;;;;;;;;;;20.48;41.34;101216.00;5098209;28;799;-62
2020/12/05 05:46:42;;;;;;;;;;;;;;;20.13;42.09;101215.19;5098242;28;1918;-63
2020/12/05 05:49:08;;;;;;;;;;;;;;;20.18;41.85;101220.66;5098207;28;791;-63
2020/12/05 05:51:37;;;;;;;;;;;;;;;19.69;42.76;101227.00;5096828;28;795;-60
2020/12/05 05:54:09;;;;;;;;;;;;;;;20.09;42.42;101233.44;5098285;28;790;-62
2020/12/05 05:56:34;;;;;;;;;;;;;;;20.88;40.31;101229.75;5097661;28;914;-63
2020/12/05 05:59:00;;;;;;;;;;;;;;;20.39;41.25;101233.50;5097929;28;731;-61
2020/12/05 06:01:25;;;;;;;;;;;;;;;20.32;41.38;101233.81;5096905;28;815;-61
2020/12/05 06:03:51;;;;;;;;;;;;;;;19.49;42.93;101245.28;5096600;28;759;-61
2020/12/05 06:06:16;;;;;;;;;;;;;;;20.49;41.54;101245.25;5096740;28;1917;-61
2020/12/05 06:08:41;;;;;;;;;;;;;;;20.68;40.60;101250.13;5096611;28;747;-61
2020/12/05 06:11:10;;;;;;;;;;;;;;;20.39;41.52;101239.03;5096205;28;965;-63
2020/12/05 06:13:36;;;;;;;;;;;;;;;20.13;41.84;101250.22;5097751;28;831;-61
2020/12/05 06:16:01;;;;;;;;;;;;;;;19.41;43.39;101251.38;5097871;28;819;-65
2020/12/05 06:18:27;;;;;;;;;;;;;;;20.45;41.46;101244.19;5097437;28;1032;-63
2020/12/05 06:20:52;;;;;;;;;;;;;;;20.58;40.81;101244.66;5097639;28;779;-64
2020/12/05 06:23:20;;;;;;;;;;;;;;;20.32;41.47;101239.34;5096800;28;764;-64
2020/12/05 06:25:49;;;;;;;;;;;;;;;19.82;42.45;101244.91;5097007;28;981;-65
2020/12/05 06:28:15;;;;;;;;;;;;;;;19.25;44.31;101241.50;5096297;28;1981;-61
2020/12/05 06:30:44;;;;;;;;;;;;;;;20.35;41.76;101234.03;5096226;28;771;-64
2020/12/05 06:33:10;;;;;;;;;;;;;;;20.43;41.20;101237.34;5097133;28;759;-57
2020/12/05 06:35:35;;;;;;;;;;;;;;;20.24;41.76;101238.00;5097498;28;759;-57
2020/12/05 06:38:01;;;;;;;;;;;;;;;19.70;42.87;101234.19;5097766;28;787;-56
2020/12/05 06:40:26;;;;;;;;;;;;;;;19.25;44.22;101244.28;5096643;28;957;-57
2020/12/05 06:42:53;;;;;;;;;;;;;;;20.51;41.19;101243.06;5097248;28;803;-58
2020/12/05 06:45:27;;;;;;;;;;;;;;;20.52;41.16;101239.19;5096009;28;835;-57
2020/12/05 06:47:53;;;;;;;;;;;;;;;20.25;41.63;101249.88;5095574;28;2025;-58
2020/12/05 06:50:31;;;;;;;;;;;;;;;19.69;42.90;101242.75;5097224;28;712;-57
2020/12/05 06:52:56;;;;;;;;;;;;;;;20.08;42.26;101245.56;5096920;28;831;-57
2020/12/05 06:55:29;;;;;;;;;;;;;;;20.83;40.52;101238.94;5096635;28;926;-57
2020/12/05 06:58:01;;;;;;;;;;;;;;;20.17;42.03;101238.34;5097112;28;866;-57
2020/12/05 07:00:26;;;;;;;;;;;;;;;20.20;41.79;101244.41;5095717;28;799;-57
2020/12/05 07:02:59;;;;;;;;;;;;;;;19.25;43.97;101249.78;5096642;28;767;-60
2020/12/05 07:05:28;;;;;;;;;;;;;;;20.37;41.53;101250.34;5097137;28;811;-60
2020/12/05 07:07:53;;;;;;;;;;;;;;;20.54;41.01;101249.09;5096673;28;1909;-58
2020/12/05 07:10:23;;;;;;;;;;;;;;;20.39;41.45;101242.59;5096534;28;1008;-59
2020/12/05 07:12:48;;;;;;;;;;;;;;;19.84;42.60;101239.94;5095528;28;1294;-58
2020/12/05 07:15:25;;;;;;;;;;;;;;;19.34;44.02;101247.31;5096667;28;859;-60
2020/12/05 07:17:51;;;;;;;;;;;;;;;20.41;41.75;101240.38;5095182;28;1217;-59
2020/12/05 07:20:16;;;;;;;;;;;;;;;20.40;41.30;101241.50;5096933;28;804;-63
2020/12/05 07:22:44;;;;;;;;;;;;;;;20.20;41.80;101247.97;5096415;28;814;-61
2020/12/05 07:25:09;;;;;;;;;;;;;;;19.82;42.42;101242.97;5096544;28;965;-61
2020/12/05 07:27:35;;;;;;;;;;;;;;;19.66;43.47;101249.66;5096681;28;1977;-60
2020/12/05 07:30:01;;;;;;;;;;;;;;;20.67;41.01;101251.22;5095034;28;772;-61
2020/12/05 07:32:33;;;;;;;;;;;;;;;20.45;41.21;101244.19;5096463;28;771;-61
2020/12/05 07:34:59;;;;;;;;;;;;;;;20.22;41.73;101248.53;5095264;28;877;-62
2020/12/05 07:37:25;;;;;;;;;;;;;;;19.56;43.00;101247.75;5096566;28;771;-64
2020/12/05 07:39:51;;;;;;;;;;;;;;;19.79;42.94;101259.25;5096156;28;1008;-61
2020/12/05 07:42:16;;;;;;;;;;;;;;;20.74;41.02;101253.69;5096462;28;838;-60
2020/12/05 07:44:42;;;;;;;;;;;;;;;20.36;41.51;101257.00;5096348;28;774;-58
2020/12/05 07:47:17;;;;;;;;;;;;;;;20.25;41.90;101266.47;5096264;28;1906;-59
2020/12/05 07:49:50;;;;;;;;;;;;;;;19.60;43.04;101261.78;5095534;28;819;-58
2020/12/05 07:52:17;;;;;;;;;;;;;;;20.05;42.60;101261.88;5096354;28;846;-59
2020/12/05 07:54:51;;;;;;;;;;;;;;;20.84;40.62;101265.44;5095983;28;934;-58
2020/12/05 07:57:16;;;;;;;;;;;;;;;20.35;41.61;101261.66;5096502;28;807;-59
2020/12/05 07:59:43;;;;;;;;;;;;;;;20.13;42.01;101264.88;5096456;28;803;-59
2020/12/05 08:02:18;;;;;;;;;;;;;;;19.29;43.91;101271.03;5094669;28;955;-57
2020/12/05 08:04:52;;;;;;;;;;;;;;;20.40;41.65;101271.03;5098110;28;810;-58
2020/12/05 08:07:18;;;;;;;;;;;;;;;20.62;40.84;101271.44;5100260;28;1910;-54
2020/12/05 08:09:43;;;;;;;;;;;;;;;20.26;41.91;101279.13;5098659;28;1040;-59
2020/12/05 08:12:12;;;;;;;;;;;;;;;19.82;42.71;101275.25;5098778;28;830;-57
2020/12/05 08:14:38;;;;;;;;;;;;;;;19.39;43.99;101277.59;5099027;28;809;-58
2020/12/05 08:17:03;;;;;;;;;;;;;;;20.63;41.16;101283.28;5098194;28;1015;-58
2020/12/05 08:19:29;;;;;;;;;;;;;;;20.38;41.37;101287.91;5098702;28;858;-57
2020/12/05 08:21:55;;;;;;;;;;;;;;;20.20;41.95;101289.38;5099995;28;803;-60
2020/12/05 08:24:20;;;;;;;;;;;;;;;19.79;42.84;101292.34;5099873;28;784;-60
2020/12/05 08:26:48;;;;;;;;;;;;;;;20.05;42.61;101301.38;5099652;28;1972;-58
2020/12/05 08:29:13;;;;;;;;;;;;;;;20.79;40.92;101293.16;5098388;28;999;-61
2020/12/05 08:31:41;;;;;;;;;;;;;;;20.48;41.45;101296.13;5097892;28;811;-58
2020/12/05 08:34:06;;;;;;;;;;;;;;;20.45;41.34;101287.56;5099723;28;780;-61
2020/12/05 08:36:34;;;;;;;;;;;;;;;19.70;42.96;101294.88;5099733;28;897;-59
2020/12/05 08:39:09;;;;;;;;;;;;;;;20.01;42.58;101292.00;5099710;28;807;-57
2020/12/05 08:41:44;;;;;;;;;;;;;;;20.90;40.30;101288.34;5099508;28;1000;-61
2020/12/05 08:44:28;;;;;;;;;;;;;;;20.44;41.39;101289.53;5098473;28;784;-58
2020/12/05 08:47:03;;;;;;;;;;;;;;;20.20;41.76;101288.56;5099070;28;1898;-58
2020/12/05 08:49:28;;;;;;;;;;;;;;;19.37;44.01;101286.16;5099544;28;708;-60
2020/12/05 08:51:54;;;;;;;;;;;;;;;20.41;41.75;101287.34;5098146;28;1401;-61
2020/12/05 08:54:19;;;;;;;;;;;;;;;20.59;41.13;101285.78;5097783;28;1447;-59
2020/12/05 08:56:45;;;;;;;;;;;;;;;20.35;41.86;101289.28;5098981;28;980;-59
2020/12/05 08:59:11;;;;;;;;;;;;;;;20.06;42.33;101286.44;5099330;28;771;-60
2020/12/05 09:01:42;;;;;;;;;;;;;;;19.27;44.25;101284.25;5099100;28;748;-60
2020/12/05 09:04:11;;;;;;;;;;;;;;;20.40;41.67;101279.31;5099021;28;838;-59
2020/12/05 09:06:37;;;;;;;;;;;;;;;20.75;40.81;101285.69;5099036;28;1972;-60
2020/12/05 09:09:02;;;;;;;;;;;;;;;20.16;42.09;101288.31;5098771;28;870;-58
2020/12/05 09:11:28;;;;;;;;;;;;;;;19.94;42.47;101280.44;5098848;28;958;-57
2020/12/05 09:13:53;;;;;;;;;;;;;;;19.36;43.84;101276.22;5098760;28;759;-60
2020/12/05 09:16:19;;;;;;;;;;;;;;;20.12;42.26;101279.78;5098598;28;823;-60
2020/12/05 09:18:45;;;;;;;;;;;;;;;20.79;40.65;101273.78;5098741;28;1031;-58
2020/12/05 09:21:14;;;;;;;;;;;;;;;20.39;41.56;101284.03;5098913;28;800;-59
2020/12/05 09:23:40;;;;;;;;;;;;;;;20.29;41.66;101278.59;5098791;28;775;-59
2020/12/05 09:26:06;;;;;;;;;;;;;;;19.35;43.82;101271.00;5098517;28;949;-59
2020/12/05 09:28:32;;;;;;;;;;;;;;;20.22;42.16;101275.31;5098634;28;1979;-60
2020/12/05 09:30:58;;;;;;;;;;;;;;;20.87;40.46;101279.81;5098414;28;827;-61
2020/12/05 09:33:23;;;;;;;;;;;;;;;20.51;41.33;101276.22;5099039;28;767;-62
2020/12/05 09:35:49;;;;;;;;;;;;;;;20.32;41.56;101278.00;5098514;28;834;-61
2020/12/05 09:38:15;;;;;;;;;;;;;;;19.47;43.58;101275.09;5096972;28;891;-60
2020/12/05 09:40:40;;;;;;;;;;;;;;;20.45;41.63;101266.28;5098317;28;957;-61
2020/12/05 09:43:06;;;;;;;;;;;;;;;20.64;40.89;101273.91;5098322;28;775;-60
2020/12/05 09:45:34;;;;;;;;;;;;;;;20.42;41.58;101277.91;5098211;28;829;-59
2020/12/05 09:47:59;;;;;;;;;;;;;;;19.95;42.48;101274.66;5098398;28;2012;-59
2020/12/05 09:50:25;;;;;;;;;;;;;;;19.57;43.61;101279.75;5098057;28;809;-59
2020/12/05 09:52:50;;;;;;;;;;;;;;;20.20;42.28;101277.53;5098022;28;771;-61
2020/12/05 09:55:16;;;;;;;;;;;;;;;20.90;40.48;101279.22;5098004;28;988;-60
2020/12/05 09:57:41;;;;;;;;;;;;;;;20.29;41.76;101275.81;5097648;28;1125;-58
2020/12/05 10:00:08;;;;;;;;;;;;;;;20.28;41.83;101282.44;5097768;28;878;-58
2020/12/05 10:02:35;;;;;;;;;;;;;;;19.52;43.39;101282.53;5098010;28;799;-58
2020/12/05 10:05:00;;;;;;;;;;;;;;;19.88;42.95;101271.38;5097904;28;811;-59
2020/12/05 10:07:25;;;;;;;;;;;;;;;20.84;40.73;101264.63;5097893;28;1921;-59
2020/12/05 10:09:51;;;;;;;;;;;;;;;20.38;41.68;101279.59;5097541;28;1008;-59
2020/12/05 10:12:16;;;;;;;;;;;;;;;20.39;41.94;101267.44;5098058;28;819;-58
2020/12/05 10:14:42;;;;;;;;;;;;;;;19.72;42.94;101270.56;5097643;28;748;-59
2020/12/05 10:17:07;;;;;;;;;;;;;;;20.05;42.52;101268.25;5097612;28;1099;-59
2020/12/05 10:19:33;;;;;;;;;;;;;;;20.83;40.68;101274.03;5097917;28;818;-59
2020/12/05 10:21:58;;;;;;;;;;;;;;;20.43;41.60;101268.53;5097514;28;784;-59
2020/12/05 10:24:24;;;;;;;;;;;;;;;20.29;41.89;101273.06;5097482;28;779;-59
2020/12/05 10:26:50;;;;;;;;;;;;;;;19.53;43.39;101266.78;5096491;28;1926;-59
2020/12/05 10:29:15;;;;;;;;;;;;;;;20.01;42.69;101267.16;5097643;28;771;-60
2020/12/05 10:31:44;;;;;;;;;;;;;;;20.87;40.78;101263.22;5095993;28;819;-60
2020/12/05 10:34:10;;;;;;;;;;;;;;;20.38;41.66;101274.09;5097425;28;759;-60
2020/12/05 10:36:35;;;;;;;;;;;;;;;20.38;41.80;101263.03;5096133;28;963;-58
2020/12/05 10:39:01;;;;;;;;;;;;;;;19.62;43.18;101265.13;5096985;28;759;-59
2020/12/05 10:41:26;;;;;;;;;;;;;;;19.96;43.06;101265.25;5097008;28;961;-59
2020/12/05 10:43:52;;;;;;;;;;;;;;;20.97;40.70;101268.63;5097454;28;775;-58
2020/12/05 10:46:17;;;;;;;;;;;;;;;20.40;41.89;101263.59;5096862;28;1923;-58
2020/12/05 10:48:43;;;;;;;;;;;;;;;20.26;41.95;101260.66;5097192;28;795;-57
2020/12/05 10:51:08;;;;;;;;;;;;;;;19.61;43.37;101263.44;5097168;28;800;-59
2020/12/05 10:53:34;;;;;;;;;;;;;;;19.95;42.86;101260.00;5096761;28;763;-61
2020/12/05 10:55:59;;;;;;;;;;;;;;;20.87;40.79;101260.47;5096900;28;934;-60
2020/12/05 10:58:24;;;;;;;;;;;;;;;21.58;39.16;101258.06;5095815;28;823;-60
2020/12/05 11:00:50;;;;;;;;;;;;;;;20.96;40.51;101264.25;5096575;28;907;-60
2020/12/05 11:03:15;;;;;;;;;;;;;;;20.54;41.36;101258.22;5097087;28;739;-60
2020/12/05 11:05:41;;;;;;;;;;;;;;;19.88;42.92;101262.25;5097249;28;780;-59
2020/12/05 11:08:06;;;;;;;;;;;;;;;20.07;42.65;101257.72;5096536;28;1975;-60
2020/12/05 11:10:32;;;;;;;;;;;;;;;20.99;40.78;101256.19;5096570;28;969;-60
2020/12/05 11:12:57;;;;;;;;;;;;;;;20.48;41.79;101268.50;5097073;28;810;-60
2020/12/05 11:15:23;;;;;;;;;;;;;;;20.64;41.23;101260.09;5096644;28;787;-60
2020/12/05 11:17:48;;;;;;;;;;;;;;;19.85;42.72;101258.13;5096682;28;1181;-60
2020/12/05 11:20:15;;;;;;;;;;;;;;;19.78;43.48;101255.66;5096560;28;786;-61
2020/12/05 11:22:40;;;;;;;;;;;;;;;20.80;41.00;101249.72;5096438;28;803;-61
2020/12/05 11:25:05;;;;;;;;;;;;;;;20.53;41.48;101251.03;5096727;28;973;-60
2020/12/05 11:27:31;;;;;;;;;;;;;;;20.36;41.99;101251.47;5096454;28;1906;-60
2020/12/05 11:29:56;;;;;;;;;;;;;;;19.66;43.24;101249.66;5096490;28;783;-60
2020/12/05 11:32:22;;;;;;;;;;;;;;;19.41;44.16;101250.56;5096647;28;755;-60
2020/12/05 11:34:47;;;;;;;;;;;;;;;20.49;41.71;101244.44;5096343;28;819;-58
2020/12/05 11:37:13;;;;;;;;;;;;;;;20.76;40.97;101243.13;5097553;28;772;-58
2020/12/05 11:39:38;;;;;;;;;;;;;;;20.32;42.07;101244.88;5100689;28;1078;-58
2020/12/05 11:42:04;;;;;;;;;;;;;;;20.08;42.35;101234.53;5100608;28;763;-59
2020/12/05 11:44:29;;;;;;;;;;;;;;;19.47;43.70;101247.53;5082739;28;967;-58
2020/12/05 11:46:54;;;;;;;;;;;;;;;20.43;41.89;101246.44;5100908;28;1963;-59
2020/12/05 11:49:20;;;;;;;;;;;;;;;21.05;40.37;101240.34;5100422;28;854;-59
2020/12/05 11:51:46;;;;;;;;;;;;;;;20.49;41.69;101247.22;5099882;28;1293;-60
2020/12/05 11:54:11;;;;;;;;;;;;;;;20.34;42.12;101259.19;5100580;28;866;-60
2020/12/05 11:56:37;;;;;;;;;;;;;;;19.53;43.66;101250.25;5100319;28;925;-60
2020/12/05 11:59:03;;;;;;;;;;;;;;;20.61;41.69;101249.63;5100421;28;759;-60
2020/12/05 12:01:28;;;;;;;;;;;;;;;20.79;40.90;101254.44;5100401;28;743;-60
2020/12/05 12:03:54;;;;;;;;;;;;;;;20.32;42.07;101256.72;5100207;28;759;-64
2020/12/05 12:06:19;;;;;;;;;;;;;;;20.09;42.58;101250.00;5100421;28;1905;-63
2020/12/05 12:08:48;;;;;;;;;;;;;;;19.46;43.79;101262.41;5100246;28;799;-58
2020/12/05 12:11:17;;;;;;;;;;;;;;;20.07;42.68;101254.16;5099951;28;957;-58
2020/12/05 12:13:42;;;;;;;;;;;;;;;20.84;41.18;101259.09;5100054;28;863;-57
2020/12/05 12:16:11;;;;;;;;;;;;;;;20.50;41.88;101263.50;5100166;28;858;-58
2020/12/05 12:18:36;;;;;;;;;;;;;;;20.30;42.25;101263.66;5099796;28;1225;-59
2020/12/05 12:21:01;;;;;;;;;;;;;;;19.75;43.32;101258.16;5099836;28;759;-59
2020/12/05 12:23:27;;;;;;;;;;;;;;;19.86;43.54;101256.19;5100014;28;866;-59
2020/12/05 12:25:53;;;;;;;;;;;;;;;20.75;41.23;101264.44;5099925;28;953;-59
2020/12/05 12:28:18;;;;;;;;;;;;;;;20.31;42.10;101265.31;5100278;28;1921;-58
2020/12/05 12:30:44;;;;;;;;;;;;;;;20.09;42.66;101260.19;5099823;28;756;-59
2020/12/05 12:33:09;;;;;;;;;;;;;;;19.54;43.81;101268.44;5099623;28;776;-60
2020/12/05 12:35:35;;;;;;;;;;;;;;;19.94;43.42;101270.22;5099542;28;771;-61
2020/12/05 12:38:00;;;;;;;;;;;;;;;20.96;40.77;101280.84;5099777;28;764;-61
2020/12/05 12:40:26;;;;;;;;;;;;;;;20.47;41.83;101274.31;5099156;28;953;-57
2020/12/05 12:42:51;;;;;;;;;;;;;;;20.23;42.23;101268.66;5099735;28;804;-59
2020/12/05 12:45:26;;;;;;;;;;;;;;;19.58;43.58;101277.81;5099593;28;764;-58
2020/12/05 12:50:36;;;;;;;;;;;;;;;20.78;41.28;101268.56;5098518;28;798;-59
2020/12/05 12:53:02;;;;;;;;;;;;;;;20.32;42.09;101273.28;5099361;28;818;-59